Black Hawk, Colorado
Current Conditions -  °F | °C
As of 12:29 PM on Thursday 23 Oct 2014 (Local Time) from K0CO Reporting Station
Scattered Clouds Scattered Clouds  
Wind Chill: 20°   Ceiling: Unl
Heat Index: 32°   Visibility: 10mi
Dew Point: 28°   Wind: 18mph
Humidity: 87%   Direction: 280°W
Pressure: 30.52"   Gusts: 24mph
Location:  39.8°N, 105.49°W
Report Text: K0CO 231829Z AUTO 28016G21KT 10SM SCT026 00/M02 A3052 RMK AO2
Loading
Personal Weather Stations






























Interactive Weather Map
Tropical Storm Tracking
New forecast layout! Learn more

10-Day Weather Forecast

Advertisements
Track Severe Weather on mobile